Time;durP1;ratioP1;P1;durP2;ratioP2;P2;SDS_P1;SDS_P2;PMS_P1;PMS_P2;Temp;Humidity;BMP_temperature;BMP_pressure;BME280_temperature;BME280_humidity;BME280_pressure;Samples;Min_cycle;Max_cycle;Signal;HPM_P1;HPM_P2
2021/03/11 00:00:09;;;;;;;24.50;14.45;;;;;;;1.65;100.00;95809.88;1027907;28;20057;-56
2021/03/11 00:00:40;;;;;;;26.27;15.15;;;;;;;1.62;100.00;95793.59;1031857;28;20025;-56
2021/03/11 00:01:11;;;;;;;25.70;14.77;;;;;;;1.74;100.00;95807.47;1031967;28;20078;-56
2021/03/11 00:01:41;;;;;;;26.95;14.68;;;;;;;1.73;100.00;95804.03;1023911;28;20023;-56
2021/03/11 00:02:12;;;;;;;24.70;13.98;;;;;;;1.67;100.00;95796.66;1024042;28;20039;-57
2021/03/11 00:02:43;;;;;;;25.60;14.45;;;;;;;1.68;100.00;95798.34;1035867;28;20022;-56
2021/03/11 00:03:15;;;;;;;28.65;15.45;;;;;;;1.69;100.00;95797.38;1031920;28;20114;-56
2021/03/11 00:03:46;;;;;;;25.77;15.00;;;;;;;1.58;100.00;95797.41;1027701;28;20101;-57
2021/03/11 00:04:17;;;;;;;26.25;14.20;;;;;;;1.58;100.00;95800.84;1027950;28;20042;-56
2021/03/11 00:04:47;;;;;;;23.02;14.32;;;;;;;1.57;100.00;95806.22;1027841;28;20432;-57
2021/03/11 00:05:19;;;;;;;27.98;14.23;;;;;;;1.58;100.00;95792.19;1023914;29;20034;-56
2021/03/11 00:05:49;;;;;;;24.88;14.90;;;;;;;1.62;100.00;95801.44;1023983;29;20114;-56
2021/03/11 00:06:20;;;;;;;26.27;14.00;;;;;;;1.60;100.00;95793.75;1019913;28;20404;-57
2021/03/11 00:06:51;;;;;;;24.60;14.35;;;;;;;1.59;100.00;95799.91;1027904;28;20026;-56
2021/03/11 00:07:21;;;;;;;25.85;14.25;;;;;;;1.58;100.00;95795.63;1027864;28;20121;-57
2021/03/11 00:07:52;;;;;;;26.42;13.98;;;;;;;1.57;100.00;95801.81;1031947;28;20026;-57
2021/03/11 00:08:23;;;;;;;24.77;14.95;;;;;;;1.52;100.00;95803.16;1019942;28;20062;-57
2021/03/11 00:08:53;;;;;;;24.38;14.23;;;;;;;1.56;100.00;95799.34;1019829;28;20030;-57
2021/03/11 00:09:24;;;;;;;24.10;13.75;;;;;;;1.55;100.00;95803.75;1032060;28;20018;-57
2021/03/11 00:09:55;;;;;;;24.17;13.73;;;;;;;1.56;100.00;95797.53;1027886;28;20446;-56
2021/03/11 00:10:26;;;;;;;24.27;14.45;;;;;;;1.48;100.00;95797.31;1031901;28;20018;-56
2021/03/11 00:10:56;;;;;;;24.95;14.38;;;;;;;1.43;100.00;95797.72;1019932;28;20032;-57
2021/03/11 00:11:27;;;;;;;26.45;15.43;;;;;;;1.39;100.00;95798.06;1023870;29;20027;-56
2021/03/11 00:11:58;;;;;;;23.67;14.35;;;;;;;1.31;100.00;95804.75;1032017;28;20162;-55
2021/03/11 00:12:28;;;;;;;27.70;14.00;;;;;;;1.36;100.00;95803.53;1019949;28;20448;-56
2021/03/11 00:12:59;;;;;;;23.92;14.43;;;;;;;1.42;100.00;95796.03;1023899;29;20029;-56
2021/03/11 00:13:30;;;;;;;24.58;14.68;;;;;;;1.42;100.00;95801.25;1027745;28;20031;-56
2021/03/11 00:14:01;;;;;;;22.40;13.85;;;;;;;1.44;100.00;95801.97;1019934;29;20090;-55
2021/03/11 00:14:32;;;;;;;24.58;13.02;;;;;;;1.47;100.00;95811.38;1027840;28;20074;-56
2021/03/11 00:15:05;;;;;;;23.20;13.52;;;;;;;1.44;100.00;95801.16;1031714;28;20020;-56
2021/03/11 00:15:38;;;;;;;27.23;15.68;;;;;;;1.45;100.00;95798.41;1027819;28;20073;-57
2021/03/11 00:16:08;;;;;;;25.42;14.60;;;;;;;1.46;100.00;95800.09;1023839;28;20019;-57
2021/03/11 00:16:39;;;;;;;24.42;13.60;;;;;;;1.45;100.00;95798.41;1031797;28;20100;-56
2021/03/11 00:17:10;;;;;;;23.23;13.52;;;;;;;1.46;100.00;95799.22;1023774;29;20023;-57
2021/03/11 00:17:40;;;;;;;24.25;14.10;;;;;;;1.43;100.00;95802.94;1027715;28;20405;-55
2021/03/11 00:18:11;;;;;;;24.63;14.02;;;;;;;1.44;100.00;95796.72;1023956;28;20551;-57
2021/03/11 00:18:42;;;;;;;23.80;13.60;;;;;;;1.45;100.00;95797.59;1027778;28;20105;-56
2021/03/11 00:19:13;;;;;;;22.77;14.05;;;;;;;1.46;100.00;95792.22;1019892;29;20482;-56
2021/03/11 00:19:44;;;;;;;23.23;13.57;;;;;;;1.46;100.00;95794.84;1019932;29;20493;-56
2021/03/11 00:20:18;;;;;;;25.25;13.57;;;;;;;1.38;100.00;95797.25;1031870;28;20018;-56
2021/03/11 00:20:49;;;;;;;23.70;14.23;;;;;;;1.41;100.00;95797.00;1023818;28;20589;-56
2021/03/11 00:21:19;;;;;;;24.05;13.55;;;;;;;1.36;100.00;95799.16;1023808;29;20023;-56
2021/03/11 00:21:50;;;;;;;24.92;13.60;;;;;;;1.34;100.00;95800.22;1027481;28;20026;-57
2021/03/11 00:22:20;;;;;;;22.63;13.07;;;;;;;1.29;100.00;95796.19;1027840;28;20022;-56
2021/03/11 00:22:51;;;;;;;24.90;13.98;;;;;;;1.23;100.00;95795.84;1023779;28;20038;-57
2021/03/11 00:23:22;;;;;;;25.80;13.20;;;;;;;1.23;100.00;95798.47;1031900;28;20109;-57
2021/03/11 00:23:52;;;;;;;25.00;14.13;;;;;;;1.18;100.00;95796.19;1031542;28;20022;-56
2021/03/11 00:24:23;;;;;;;23.88;13.27;;;;;;;1.20;100.00;95799.56;1023932;28;20110;-57
2021/03/11 00:24:54;;;;;;;24.13;14.00;;;;;;;1.25;100.00;95800.00;1027882;28;20034;-57
2021/03/11 00:25:34;;;;;;;22.40;13.45;;;;;;;1.32;100.00;95802.94;1023796;29;20039;-57
2021/03/11 00:26:05;;;;;;;24.50;13.18;;;;;;;1.29;100.00;95814.50;1019822;28;20371;-56
2021/03/11 00:26:36;;;;;;;23.77;13.15;;;;;;;1.28;100.00;95810.22;1027856;28;20114;-57
2021/03/11 00:27:07;;;;;;;21.08;12.35;;;;;;;1.28;100.00;95807.59;1023777;28;20027;-56
2021/03/11 00:27:38;;;;;;;22.95;13.38;;;;;;;1.24;100.00;95808.00;1023851;28;20102;-56
2021/03/11 00:28:08;;;;;;;25.38;13.63;;;;;;;1.19;100.00;95808.34;1019823;29;20524;-56
2021/03/11 00:28:39;;;;;;;23.35;13.23;;;;;;;1.26;100.00;95801.66;1019939;29;20020;-56
2021/03/11 00:29:10;;;;;;;25.08;13.57;;;;;;;1.11;100.00;95789.81;1027851;28;20019;-57
2021/03/11 00:29:40;;;;;;;25.98;13.65;;;;;;;1.23;100.00;95808.94;1023832;29;20420;-56
2021/03/11 00:30:12;;;;;;;24.92;13.35;;;;;;;1.23;100.00;95793.22;1031618;28;20026;-56
2021/03/11 00:30:43;;;;;;;24.90;12.65;;;;;;;1.20;100.00;95807.41;1027790;28;20027;-58
2021/03/11 00:31:14;;;;;;;21.67;12.52;;;;;;;1.18;100.00;95800.63;1027825;28;20109;-56
2021/03/11 00:31:45;;;;;;;20.83;12.38;;;;;;;1.17;100.00;95802.41;1027778;28;20639;-57
2021/03/11 00:32:15;;;;;;;20.90;12.43;;;;;;;1.21;100.00;95803.81;1019766;28;20449;-56
2021/03/11 00:32:46;;;;;;;21.02;12.65;;;;;;;1.23;100.00;95801.91;1023824;28;20007;-57
2021/03/11 00:33:17;;;;;;;22.48;13.52;;;;;;;1.29;100.00;95798.81;1027887;28;20419;-57
2021/03/11 00:33:47;;;;;;;19.42;12.23;;;;;;;1.29;100.00;95798.81;1027535;28;20026;-57
2021/03/11 00:34:18;;;;;;;20.80;12.65;;;;;;;1.35;100.00;95804.50;1023754;29;20110;-56
2021/03/11 00:34:49;;;;;;;21.52;11.77;;;;;;;1.36;100.00;95793.06;1027802;28;20058;-56
2021/03/11 00:35:19;;;;;;;20.88;12.57;;;;;;;1.38;100.00;95807.72;1027797;28;20049;-57
2021/03/11 00:35:50;;;;;;;21.95;12.10;;;;;;;1.39;100.00;95801.50;1023826;28;20573;-57
2021/03/11 00:36:21;;;;;;;19.83;11.93;;;;;;;1.30;100.00;95810.09;1019712;29;20011;-56
2021/03/11 00:36:52;;;;;;;21.63;12.88;;;;;;;1.30;100.00;95810.09;1023933;28;20023;-57
2021/03/11 00:37:23;;;;;;;21.40;12.05;;;;;;;1.36;100.00;95808.78;1027775;28;20026;-56
2021/03/11 00:37:54;;;;;;;20.02;11.13;;;;;;;1.39;100.00;95798.88;1027835;28;20022;-57
2021/03/11 00:38:24;;;;;;;21.70;12.60;;;;;;;1.35;100.00;95809.75;1031697;28;20022;-56
2021/03/11 00:38:55;;;;;;;26.83;12.52;;;;;;;1.30;100.00;95805.69;1031979;28;20068;-56
2021/03/11 00:39:26;;;;;;;23.35;11.93;;;;;;;1.31;100.00;95803.94;1027919;28;20161;-57
2021/03/11 00:39:57;;;;;;;21.83;11.90;;;;;;;1.34;100.00;95803.66;1027860;28;20480;-57
2021/03/11 00:40:27;;;;;;;21.42;12.93;;;;;;;1.34;100.00;95801.03;1031650;28;20295;-56
2021/03/11 00:40:58;;;;;;;20.70;12.35;;;;;;;1.31;100.00;95798.69;1031859;28;20029;-56
2021/03/11 00:41:29;;;;;;;20.95;11.88;;;;;;;1.38;100.00;95799.03;1019946;28;20071;-57
2021/03/11 00:41:59;;;;;;;22.20;12.05;;;;;;;1.30;100.00;95795.22;1027785;28;20023;-56
2021/03/11 00:42:30;;;;;;;23.38;12.70;;;;;;;1.31;100.00;95801.31;1027648;28;20066;-57
2021/03/11 00:43:01;;;;;;;18.25;11.25;;;;;;;1.38;100.00;95799.03;1023744;28;20019;-57
2021/03/11 00:43:31;;;;;;;19.48;11.02;;;;;;;1.39;100.00;95795.44;1023623;29;20074;-57
2021/03/11 00:44:02;;;;;;;22.38;11.73;;;;;;;1.38;100.00;95791.19;1027671;28;20050;-57
2021/03/11 00:44:33;;;;;;;20.83;12.13;;;;;;;1.38;100.00;95796.41;1023740;28;20019;-56
2021/03/11 00:45:05;;;;;;;21.23;12.23;;;;;;;1.19;100.00;95769.13;1023604;28;20069;-57
2021/03/11 00:45:36;;;;;;;21.45;12.07;;;;;;;1.29;100.00;95793.59;1023714;28;20035;-57
2021/03/11 00:46:07;;;;;;;23.63;13.27;;;;;;;1.24;100.00;95795.72;1027902;28;20029;-56
2021/03/11 00:46:37;;;;;;;22.40;13.10;;;;;;;1.27;100.00;95798.09;1031708;28;20026;-56
2021/03/11 00:47:08;;;;;;;18.33;11.75;;;;;;;1.23;100.00;95794.06;1019875;29;20023;-57
2021/03/11 00:47:39;;;;;;;22.27;12.18;;;;;;;1.37;100.00;95786.91;1027731;28;20027;-57
2021/03/11 00:48:09;;;;;;;19.83;12.32;;;;;;;1.31;100.00;95791.66;1027777;28;20434;-58
2021/03/11 00:48:40;;;;;;;22.80;12.57;;;;;;;1.38;100.00;95792.00;1023668;29;20493;-57
2021/03/11 00:49:11;;;;;;;23.83;12.70;;;;;;;1.39;100.00;95798.06;1027814;28;20089;-56
2021/03/11 00:49:41;;;;;;;19.23;12.10;;;;;;;1.36;100.00;95790.47;1031789;28;20492;-57
2021/03/11 00:50:15;;;;;;;22.27;12.10;;;;;;;1.40;100.00;95794.50;1027881;28;20170;-56
2021/03/11 00:50:45;;;;;;;20.83;11.80;;;;;;;1.34;100.00;95797.59;1023663;29;20617;-57
2021/03/11 00:51:16;;;;;;;21.30;12.00;;;;;;;1.36;100.00;95795.69;1019732;29;20031;-56
2021/03/11 00:51:47;;;;;;;20.45;11.95;;;;;;;1.43;100.00;95789.84;1027707;28;20033;-56
2021/03/11 00:52:17;;;;;;;21.00;11.82;;;;;;;1.34;100.00;95793.19;1031923;28;20299;-56
2021/03/11 00:52:48;;;;;;;21.77;11.85;;;;;;;1.33;100.00;95795.97;1027767;28;20022;-57
2021/03/11 00:53:19;;;;;;;20.27;11.75;;;;;;;1.33;100.00;95793.34;1019657;29;20039;-56
2021/03/11 00:53:50;;;;;;;20.45;12.20;;;;;;;1.36;100.00;95793.06;1027497;28;20023;-57
2021/03/11 00:54:20;;;;;;;21.10;12.57;;;;;;;1.35;100.00;95788.81;1031800;28;20015;-58
2021/03/11 00:54:51;;;;;;;22.15;12.02;;;;;;;1.33;100.00;95793.34;1023783;28;20036;-56
2021/03/11 00:55:22;;;;;;;19.70;11.88;;;;;;;1.38;100.00;95792.00;1027553;28;20023;-55
2021/03/11 00:55:53;;;;;;;22.85;11.43;;;;;;;1.44;100.00;95795.91;1027643;28;20114;-56
2021/03/11 00:56:23;;;;;;;20.95;11.93;;;;;;;1.44;100.00;95790.69;1023752;28;20477;-56
2021/03/11 00:56:54;;;;;;;22.10;13.25;;;;;;;1.50;100.00;95787.59;1023748;28;20022;-56
2021/03/11 00:57:25;;;;;;;20.08;12.10;;;;;;;1.49;100.00;95793.75;1023712;29;20019;-55
2021/03/11 00:57:56;;;;;;;19.85;11.77;;;;;;;1.52;100.00;95792.69;1023726;29;20020;-56
2021/03/11 00:58:26;;;;;;;21.55;11.70;;;;;;;1.37;100.00;95774.63;1027832;28;20097;-57
2021/03/11 00:58:58;;;;;;;19.90;11.82;;;;;;;1.49;100.00;95791.13;1023751;29;20123;-56
2021/03/11 00:59:28;;;;;;;25.13;12.43;;;;;;;1.53;100.00;95789.94;1027721;28;20015;-57
2021/03/11 00:59:59;;;;;;;24.45;13.02;;;;;;;1.48;100.00;95786.84;1023692;28;20055;-57
2021/03/11 01:00:30;;;;;;;20.25;11.52;;;;;;;1.46;100.00;95783.53;1019799;29;20024;-57
2021/03/11 01:01:00;;;;;;;19.75;11.88;;;;;;;1.41;100.00;95786.53;1019793;29;20359;-57
2021/03/11 01:01:31;;;;;;;19.02;11.63;;;;;;;1.46;100.00;95778.31;1027599;28;20065;-56
2021/03/11 01:02:03;;;;;;;24.38;11.98;;;;;;;1.51;100.00;95781.38;1019846;28;20016;-57
2021/03/11 01:02:33;;;;;;;18.20;10.73;;;;;;;1.43;100.00;95778.53;1023748;29;20528;-56
2021/03/11 01:03:04;;;;;;;19.55;11.43;;;;;;;1.52;100.00;95785.66;1027698;28;20114;-56
2021/03/11 01:03:35;;;;;;;20.35;11.48;;;;;;;1.56;100.00;95786.25;1027354;28;20023;-56
2021/03/11 01:04:06;;;;;;;19.42;12.10;;;;;;;1.52;100.00;95780.44;1027773;28;20481;-56
2021/03/11 01:04:36;;;;;;;18.50;11.05;;;;;;;1.46;100.00;95778.31;1031894;28;20468;-56
2021/03/11 01:05:08;;;;;;;21.20;11.60;;;;;;;1.49;100.00;95778.06;1027407;28;20014;-57
2021/03/11 01:05:39;;;;;;;21.83;12.10;;;;;;;1.39;100.00;95779.75;1023305;29;20027;-58
2021/03/11 01:06:10;;;;;;;19.95;11.70;;;;;;;1.47;100.00;95779.97;1023691;28;20027;-57
2021/03/11 01:06:41;;;;;;;20.73;11.70;;;;;;;1.44;100.00;95780.22;1031715;28;20567;-56
2021/03/11 01:07:12;;;;;;;20.67;11.30;;;;;;;1.42;100.00;95782.13;1023823;28;20026;-57
2021/03/11 01:07:43;;;;;;;19.75;11.68;;;;;;;1.46;100.00;95784.38;1023562;28;20030;-57
2021/03/11 01:08:14;;;;;;;19.63;11.48;;;;;;;1.52;100.00;95783.06;1023743;29;20070;-56
2021/03/11 01:08:45;;;;;;;19.00;11.07;;;;;;;1.52;100.00;95783.06;1023719;29;20039;-56
2021/03/11 01:09:16;;;;;;;18.27;11.30;;;;;;;1.45;100.00;95774.03;1027760;28;20366;-57
2021/03/11 01:09:47;;;;;;;20.45;11.95;;;;;;;1.54;100.00;95782.94;1023534;28;20034;-56
2021/03/11 01:10:18;;;;;;;19.80;11.32;;;;;;;1.54;100.00;95783.75;1023807;28;20019;-57
2021/03/11 01:10:48;;;;;;;21.55;11.95;;;;;;;1.58;100.00;95776.47;1027745;28;20516;-56
2021/03/11 01:11:19;;;;;;;18.45;11.52;;;;;;;1.60;100.00;95771.94;1023727;29;20027;-56
2021/03/11 01:11:50;;;;;;;20.63;11.02;;;;;;;1.64;100.00;95771.59;1027559;28;20030;-56
2021/03/11 01:12:21;;;;;;;17.15;10.73;;;;;;;1.66;100.00;95776.69;1023701;29;20203;-56
2021/03/11 01:12:51;;;;;;;17.83;11.13;;;;;;;1.64;100.00;95782.06;1027717;28;20019;-56
2021/03/11 01:13:22;;;;;;;18.42;10.57;;;;;;;1.56;100.00;95773.16;1031706;28;20045;-56
2021/03/11 01:13:54;;;;;;;19.27;10.77;;;;;;;1.54;100.00;95778.53;1023364;29;20024;-56
2021/03/11 01:14:25;;;;;;;18.23;10.27;;;;;;;1.45;100.00;95776.66;1027716;28;20027;-57
2021/03/11 01:14:55;;;;;;;20.52;11.25;;;;;;;1.49;100.00;95780.69;1023741;28;20481;-56
2021/03/11 01:15:28;;;;;;;18.60;10.90;;;;;;;1.42;100.00;95763.81;1023679;29;20115;-55
2021/03/11 01:15:59;;;;;;;20.80;11.27;;;;;;;1.47;100.00;95777.34;1027655;28;20034;-56
2021/03/11 01:16:29;;;;;;;23.75;11.38;;;;;;;1.56;100.00;95773.97;1023847;29;20479;-57
2021/03/11 01:17:00;;;;;;;17.65;11.15;;;;;;;1.60;100.00;95772.81;1027669;28;20031;-57
2021/03/11 01:17:32;;;;;;;16.92;10.70;;;;;;;1.62;100.00;95777.88;1023736;28;20317;-56
2021/03/11 01:18:05;;;;;;;20.10;11.18;;;;;;;1.68;100.00;95778.22;1023583;28;20114;-56
2021/03/11 01:18:35;;;;;;;18.90;10.63;;;;;;;1.64;100.00;95779.44;1023705;28;20019;-56
2021/03/11 01:19:06;;;;;;;18.60;10.38;;;;;;;1.63;100.00;95771.69;1027691;28;20019;-57
2021/03/11 01:19:37;;;;;;;17.92;10.73;;;;;;;1.63;100.00;95774.31;1027744;28;20477;-56
2021/03/11 01:20:12;;;;;;;17.65;10.82;;;;;;;1.65;100.00;95775.84;1031633;28;20030;-57
2021/03/11 01:20:43;;;;;;;18.00;10.70;;;;;;;1.69;100.00;95774.66;1035866;28;20021;-56
2021/03/11 01:21:14;;;;;;;17.25;10.77;;;;;;;1.68;100.00;95764.31;1031799;28;20073;-56
2021/03/11 01:21:45;;;;;;;18.65;9.52;;;;;;;1.77;100.00;95774.00;1027706;28;20424;-56
2021/03/11 01:22:15;;;;;;;20.77;11.18;;;;;;;1.74;100.00;95778.66;1019566;28;20071;-56
2021/03/11 01:22:46;;;;;;;20.63;10.70;;;;;;;1.76;100.00;95774.13;1019771;29;20087;-56
2021/03/11 01:23:17;;;;;;;19.15;10.20;;;;;;;1.69;100.00;95779.06;1019798;28;20106;-56
2021/03/11 01:23:48;;;;;;;15.45;9.88;;;;;;;1.66;100.00;95777.53;1023525;29;20101;-56
2021/03/11 01:24:18;;;;;;;17.88;10.60;;;;;;;1.73;100.00;95772.63;1031656;28;20432;-56
2021/03/11 01:24:49;;;;;;;17.00;9.82;;;;;;;1.74;100.00;95776.88;1031688;28;20018;-57
2021/03/11 01:25:20;;;;;;;17.63;10.70;;;;;;;1.73;100.00;95774.41;1031617;28;20169;-56
2021/03/11 01:25:50;;;;;;;16.88;10.10;;;;;;;1.71;100.00;95779.78;1027595;28;20118;-56
2021/03/11 01:26:21;;;;;;;16.60;10.80;;;;;;;1.72;100.00;95783.22;1023458;29;20027;-56
2021/03/11 01:26:52;;;;;;;17.77;9.40;;;;;;;1.61;100.00;95771.81;1031597;28;20176;-57
2021/03/11 01:27:23;;;;;;;18.83;9.70;;;;;;;1.67;100.00;95781.81;1027621;28;20023;-57
2021/03/11 01:27:54;;;;;;;20.10;10.50;;;;;;;1.68;100.00;95782.63;1027657;28;20110;-57
2021/03/11 01:28:25;;;;;;;18.75;10.55;;;;;;;1.61;100.00;95779.69;1019602;29;20034;-57
2021/03/11 01:28:56;;;;;;;16.88;9.98;;;;;;;1.67;100.00;95776.56;1023693;29;20537;-56
2021/03/11 01:29:27;;;;;;;16.85;10.23;;;;;;;1.70;100.00;95773.69;1027751;28;20416;-56
2021/03/11 01:29:58;;;;;;;15.05;8.73;;;;;;;1.57;100.00;95778.28;1027627;28;20125;-56
2021/03/11 01:30:29;;;;;;;15.25;9.23;;;;;;;1.66;100.00;95782.75;1023628;29;20501;-55
2021/03/11 01:30:59;;;;;;;17.17;9.55;;;;;;;1.69;100.00;95771.22;1027706;28;20103;-56
2021/03/11 01:31:30;;;;;;;15.15;8.90;;;;;;;1.56;100.00;95776.59;1023713;29;20031;-56
2021/03/11 01:32:01;;;;;;;15.30;9.30;;;;;;;1.59;100.00;95780.78;1023599;29;20027;-57
2021/03/11 01:32:31;;;;;;;15.68;9.15;;;;;;;1.69;100.00;95779.88;1023514;28;20681;-56
2021/03/11 01:33:03;;;;;;;17.40;9.65;;;;;;;1.67;100.00;95779.19;1023772;29;20533;-57
2021/03/11 01:33:33;;;;;;;15.43;8.20;;;;;;;1.67;100.00;95771.34;1023542;29;20118;-56
2021/03/11 01:34:04;;;;;;;14.93;8.80;;;;;;;1.74;100.00;95771.63;1027499;28;20030;-57
2021/03/11 01:34:35;;;;;;;15.35;8.98;;;;;;;1.72;100.00;95783.22;1027519;28;20133;-56
2021/03/11 01:35:07;;;;;;;16.55;9.77;;;;;;;1.65;100.00;95754.91;1027701;28;20033;-56
2021/03/11 01:35:37;;;;;;;18.05;9.25;;;;;;;1.76;100.00;95779.38;1023723;29;20096;-56
2021/03/11 01:36:08;;;;;;;15.57;9.25;;;;;;;1.79;100.00;95773.88;1027610;28;20051;-56
2021/03/11 01:36:39;;;;;;;14.50;9.02;;;;;;;1.79;100.00;95774.72;1023465;29;20024;-57
2021/03/11 01:37:10;;;;;;;15.15;9.73;;;;;;;1.78;100.00;95767.84;1027599;28;20030;-56
2021/03/11 01:37:41;;;;;;;15.93;8.48;;;;;;;1.83;100.00;95760.44;1027596;28;20437;-55
2021/03/11 01:38:11;;;;;;;14.77;8.77;;;;;;;1.78;100.00;95740.84;1027633;28;20034;-57
2021/03/11 01:38:42;;;;;;;16.00;9.60;;;;;;;1.78;100.00;95751.31;1031547;28;20484;-57
2021/03/11 01:39:13;;;;;;;13.35;8.10;;;;;;;1.82;100.00;95747.47;1023578;29;20114;-56
2021/03/11 01:39:44;;;;;;;14.95;8.93;;;;;;;1.82;100.00;95747.47;1031575;28;20029;-57
2021/03/11 01:40:15;;;;;;;17.15;9.23;;;;;;;1.84;100.00;95750.78;1027565;28;20023;-56
2021/03/11 01:40:45;;;;;;;13.32;7.90;;;;;;;1.79;100.00;95747.72;1027557;28;20070;-57
2021/03/11 01:41:16;;;;;;;15.30;8.65;;;;;;;1.81;100.00;95757.13;1027596;28;20023;-56
2021/03/11 01:41:47;;;;;;;13.88;8.43;;;;;;;1.81;100.00;95751.03;1027667;28;20049;-57
2021/03/11 01:42:18;;;;;;;15.85;9.95;;;;;;;1.86;100.00;95749.72;1023642;29;20454;-56
2021/03/11 01:42:48;;;;;;;15.55;8.07;;;;;;;1.83;100.00;95749.97;1027567;28;20023;-57
2021/03/11 01:43:20;;;;;;;15.32;8.80;;;;;;;1.73;100.00;95749.06;1019612;29;20514;-56
2021/03/11 01:43:58;;;;;;;13.90;9.00;;;;;;;1.73;100.00;95745.63;1023390;29;20075;-57
2021/03/11 01:44:29;;;;;;;14.93;8.40;;;;;;;1.79;100.00;95755.56;1027592;28;20050;-57
2021/03/11 01:44:59;;;;;;;14.98;8.25;;;;;;;1.79;100.00;95752.94;1019404;28;20587;-57
2021/03/11 01:45:30;;;;;;;18.50;9.45;;;;;;;1.79;100.00;95742.47;1027528;28;20419;-57
2021/03/11 01:46:01;;;;;;;12.98;7.78;;;;;;;1.79;100.00;95738.06;1015702;29;20482;-57
2021/03/11 01:46:32;;;;;;;14.07;7.97;;;;;;;1.80;100.00;95723.22;1023641;29;20031;-56
2021/03/11 01:47:02;;;;;;;14.13;9.10;;;;;;;1.80;100.00;95729.25;1019513;29;20411;-56
2021/03/11 01:47:34;;;;;;;16.63;9.35;;;;;;;1.77;100.00;95729.50;1023633;28;20015;-56
2021/03/11 01:48:05;;;;;;;14.68;8.38;;;;;;;1.77;100.00;95723.44;1023529;29;20029;-56
2021/03/11 01:48:36;;;;;;;15.02;8.30;;;;;;;1.73;100.00;95724.69;1019655;29;20019;-57
2021/03/11 01:49:06;;;;;;;15.68;8.43;;;;;;;1.79;100.00;95732.81;1027504;28;20026;-56
2021/03/11 01:49:37;;;;;;;16.48;8.30;;;;;;;1.80;100.00;95731.06;1023617;29;20038;-56
2021/03/11 01:50:12;;;;;;;12.73;8.15;;;;;;;1.86;100.00;95733.16;1023621;29;20031;-56
2021/03/11 01:50:42;;;;;;;14.95;7.75;;;;;;;1.79;100.00;95722.34;1019623;29;20028;-56
2021/03/11 01:51:13;;;;;;;15.18;7.90;;;;;;;1.82;100.00;95726.53;1015648;29;20024;-56
2021/03/11 01:51:43;;;;;;;14.27;9.07;;;;;;;1.85;100.00;95714.00;1015699;29;20048;-56
2021/03/11 01:52:14;;;;;;;14.00;8.00;;;;;;;1.86;100.00;95701.72;1023569;29;20038;-56
2021/03/11 01:52:45;;;;;;;15.43;8.60;;;;;;;1.76;100.00;95692.97;1027782;28;20042;-55
2021/03/11 01:53:16;;;;;;;12.40;7.65;;;;;;;1.75;100.00;95684.31;1031567;28;20436;-56
2021/03/11 01:53:47;;;;;;;14.18;7.97;;;;;;;1.85;100.00;95687.00;1027157;28;20125;-57
2021/03/11 01:54:17;;;;;;;15.32;9.02;;;;;;;1.89;100.00;95681.34;1023646;28;20039;-57
2021/03/11 01:54:48;;;;;;;16.77;8.57;;;;;;;1.84;100.00;95678.28;1019675;29;20039;-57
2021/03/11 01:55:19;;;;;;;15.63;8.77;;;;;;;1.85;100.00;95679.97;1019712;28;20030;-56
2021/03/11 01:55:50;;;;;;;14.27;9.07;;;;;;;1.78;100.00;95670.97;1027476;28;20038;-57
2021/03/11 01:56:20;;;;;;;13.68;8.02;;;;;;;1.83;100.00;95670.56;1023612;28;20020;-63
2021/03/11 01:56:51;;;;;;;16.75;8.68;;;;;;;1.76;100.00;95651.97;1031658;28;20025;-56
2021/03/11 01:57:22;;;;;;;15.65;9.18;;;;;;;1.84;100.00;95653.91;1031680;28;20110;-57
2021/03/11 01:57:52;;;;;;;16.92;9.15;;;;;;;1.84;100.00;95665.22;1023518;29;20028;-56
2021/03/11 01:58:25;;;;;;;16.15;9.57;;;;;;;1.84;100.00;95672.25;1023608;29;20477;-56
2021/03/11 01:58:56;;;;;;;15.43;8.50;;;;;;;1.88;100.00;95678.88;1023679;29;20457;-56
2021/03/11 01:59:27;;;;;;;12.52;8.13;;;;;;;1.97;100.00;95667.63;1023577;29;20019;-56
2021/03/11 01:59:57;;;;;;;13.40;9.10;;;;;;;2.00;100.00;95667.38;1019489;29;20024;-56
2021/03/11 02:00:28;;;;;;;13.65;8.20;;;;;;;2.01;100.00;95669.03;1019642;29;20114;-56
2021/03/11 02:00:59;;;;;;;16.55;8.85;;;;;;;2.04;100.00;95663.53;1027620;28;20125;-56
2021/03/11 02:01:29;;;;;;;12.30;8.02;;;;;;;2.08;100.00;95664.91;1019645;29;20447;-56
2021/03/11 02:02:00;;;;;;;15.23;9.45;;;;;;;2.11;100.00;95665.63;1023441;29;20465;-56
2021/03/11 02:02:31;;;;;;;13.95;8.10;;;;;;;1.99;100.00;95652.63;1027669;28;20204;-56
2021/03/11 02:03:02;;;;;;;14.57;9.00;;;;;;;2.02;100.00;95655.00;1023549;28;20027;-56
2021/03/11 02:03:33;;;;;;;14.90;8.88;;;;;;;2.04;100.00;95657.47;1023449;29;20066;-56
2021/03/11 02:04:04;;;;;;;13.60;8.20;;;;;;;2.08;100.00;95656.25;1023469;28;20057;-56
2021/03/11 02:04:35;;;;;;;14.98;8.77;;;;;;;2.13;100.00;95661.09;1023621;29;20015;-56
2021/03/11 02:05:07;;;;;;;15.50;8.68;;;;;;;2.18;100.00;95661.53;1023490;29;20019;-57
2021/03/11 02:05:38;;;;;;;14.95;9.07;;;;;;;2.21;100.00;95658.63;1019619;28;20382;-57
2021/03/11 02:06:09;;;;;;;13.60;8.38;;;;;;;2.16;100.00;95666.06;1023527;28;20019;-57
2021/03/11 02:06:40;;;;;;;16.83;8.95;;;;;;;2.09;100.00;95660.53;1023716;29;20055;-57
2021/03/11 02:07:11;;;;;;;13.73;8.45;;;;;;;2.11;100.00;95657.75;1027477;28;20101;-57
2021/03/11 02:07:42;;;;;;;17.15;9.60;;;;;;;2.15;100.00;95659.19;1031596;28;20018;-56
2021/03/11 02:08:13;;;;;;;15.90;9.10;;;;;;;2.21;100.00;95659.47;1019553;28;20028;-56
2021/03/11 02:08:43;;;;;;;13.75;8.20;;;;;;;2.25;100.00;95660.03;1023653;29;20024;-57
2021/03/11 02:09:14;;;;;;;17.85;9.23;;;;;;;2.30;100.00;95651.78;1027628;28;20019;-56
2021/03/11 02:09:45;;;;;;;15.70;8.57;;;;;;;2.28;100.00;95653.69;1023571;28;20039;-57
2021/03/11 02:10:20;;;;;;;15.77;9.52;;;;;;;2.20;100.00;95649.13;1027515;28;20011;-56
2021/03/11 02:10:51;;;;;;;14.93;8.73;;;;;;;2.17;100.00;95650.22;1027563;28;20599;-56
2021/03/11 02:11:25;;;;;;;14.05;8.90;;;;;;;2.19;100.00;95648.28;1023632;29;20277;-56
2021/03/11 02:12:06;;;;;;;14.52;8.48;;;;;;;2.29;100.00;95656.19;1023513;29;20015;-58
2021/03/11 02:12:51;;;;;;;15.20;8.93;;;;;;;2.26;100.00;95645.97;1019665;28;20051;-56
2021/03/11 02:13:39;;;;;;;14.82;9.38;;;;;;;2.23;100.00;95649.69;1027643;28;20110;-57
2021/03/11 02:14:13;;;;;;;15.73;9.50;;;;;;;2.29;100.00;95648.34;1027582;28;20435;-57
2021/03/11 02:14:58;;;;;;;19.65;9.23;;;;;;;2.28;100.00;95643.22;1023586;28;20441;-56
2021/03/11 02:15:40;;;;;;;15.82;8.35;;;;;;;2.28;100.00;95640.59;1023589;28;20019;-56
2021/03/11 02:16:20;;;;;;;14.27;9.02;;;;;;;2.30;100.00;95641.28;1035704;28;20069;-57
2021/03/11 02:16:53;;;;;;;15.50;8.93;;;;;;;2.27;100.00;95650.25;1036212;28;20072;-56
2021/03/11 02:17:24;;;;;;;15.05;8.45;;;;;;;2.24;100.00;95653.13;1028283;28;20110;-56
2021/03/11 02:17:59;;;;;;;14.00;8.35;;;;;;;2.30;100.00;95646.53;1032363;28;20026;-56
2021/03/11 02:18:34;;;;;;;16.13;8.43;;;;;;;2.34;100.00;95643.53;1028090;28;20465;-58
2021/03/11 02:19:24;;;;;;;14.18;8.63;;;;;;;2.30;100.00;95636.91;1024400;29;20039;-57
2021/03/11 02:20:01;;;;;;;12.98;8.48;;;;;;;2.26;100.00;95645.97;1020235;29;20024;-57
2021/03/11 02:20:51;;;;;;;13.68;8.15;;;;;;;2.27;100.00;95645.03;1024216;29;20019;-56
2021/03/11 02:21:30;;;;;;;16.55;9.10;;;;;;;2.32;100.00;95634.97;1024698;28;20019;-56
2021/03/11 02:22:11;;;;;;;14.40;8.52;;;;;;;2.36;100.00;95641.59;1024435;28;20055;-57
2021/03/11 02:22:47;;;;;;;12.85;7.78;;;;;;;2.31;100.00;95643.78;1032208;28;20309;-56
2021/03/11 02:23:30;;;;;;;14.20;8.00;;;;;;;2.33;100.00;95647.09;1024322;28;20019;-57
2021/03/11 02:24:15;;;;;;;14.93;8.90;;;;;;;2.38;100.00;95644.91;1024310;28;20019;-57
2021/03/11 02:25:05;;;;;;;14.55;8.25;;;;;;;2.33;100.00;95636.63;1032228;28;20022;-57
2021/03/11 02:25:44;;;;;;;13.68;7.65;;;;;;;2.38;100.00;95636.22;1032954;28;20033;-57
2021/03/11 02:26:15;;;;;;;;;;;;;;;2.35;100.00;95633.88;1032860;28;20107;-57
2021/03/11 02:26:59;;;;;;;14.70;6.95;;;;;;;2.35;100.00;95636.47;1032124;28;19948;-57